• Join FlightAware (Why Join?)
  • Login
  • US Flag 
12:31PM EDT


 

Airport Tracker/Info


-or-


 

Live Flight TrackerFlight Track Log ✈ AAL1459 ✈ 10-Apr-2013 ✈ KORD - KRNO

Flight Track Log - Related Links

Times and Time Zones

All times are in EDT time to prevent confusion due to time zone crossing. See the AAL1459 flight status page for this flight to view local times or setup timezone preferences in your user account.

Time Position Orientation Groundspeed Altitude Reporting Facility
EDT Latitude Longitude Course Direction KTS MPH feet Rate Location/Type
01:10AM 41.9895 -89.9096 281° West  Level FlightAware Approximate
01:11AM 42.0097 -90.0510 281° West  Level FlightAware Approximate
01:12AM 42.0260 -90.1932 278° West  Level FlightAware Approximate
01:13AM 42.0386 -90.3362 276° West  Level FlightAware Approximate
01:14AM 42.0493 -90.4795 276° West  Level FlightAware Approximate
01:15AM 42.0599 -90.6229 276° West  Level FlightAware Approximate
01:16AM 42.0716 -90.7661 278° West  Level FlightAware Approximate
01:17AM 42.0833 -90.9092 270° West  Level FlightAware Approximate
01:18AM 42.0954 -91.0520 279° West  Level FlightAware Approximate
01:19AM 42.1121 -91.1944 279° West  Level FlightAware Approximate
01:20AM 42.1230 -91.3378 275° West  Level FlightAware Approximate
01:21AM 42.1316 -91.4816 275° West  Level FlightAware Approximate
01:22AM 42.1400 -91.6254 275° West  Level FlightAware Approximate
01:23AM 42.1483 -91.7693 274° West  Level FlightAware Approximate
01:24AM 42.1586 -91.9129 276° West  Level FlightAware Approximate
01:25AM 42.1694 -92.0564 276° West  Level FlightAware Approximate
01:26AM 42.1800 -92.2001 276° West  Level FlightAware Approximate
01:27AM 42.1905 -92.3438 276° West  Level FlightAware Approximate
01:28AM 42.2007 -92.4875 276° West  Level FlightAware Approximate
01:29AM 42.2108 -92.6313 275° West  Level FlightAware Approximate
01:30AM 42.2207 -92.7751 275° West  Level FlightAware Approximate
01:31AM 42.2304 -92.9189 275° West  Level FlightAware Approximate
01:32AM 42.2400 -93.0629 275° West  Level FlightAware Approximate
01:33AM 42.2494 -93.2068 275° West  Level FlightAware Approximate
01:34AM 42.2586 -93.3508 275° West  Level FlightAware Approximate
01:35AM 42.2676 -93.4948 275° West  Level FlightAware Approximate
01:36AM 42.2765 -93.6389 275° West  Level FlightAware Approximate
01:37AM 42.2852 -93.7830 275° West  Level FlightAware Approximate
01:38AM 42.2937 -93.9271 275° West  Level FlightAware Approximate
01:39AM 42.3020 -94.0713 275° West  Level FlightAware Approximate
01:40AM 42.3102 -94.2156 274° West  Level FlightAware Approximate
01:41AM 42.3181 -94.3598 274° West  Level FlightAware Approximate
01:42AM 42.3258 -94.5041 274° West  Level FlightAware Approximate
01:43AM 42.3333 -94.6485 274° West  Level FlightAware Approximate
01:44AM 42.3407 -94.7929 274° West  Level FlightAware Approximate
01:45AM 42.3478 -94.9373 274° West  Level FlightAware Approximate
01:46AM 42.3548 -95.0817 274° West  Level FlightAware Approximate
01:47AM 42.3616 -95.2262 274° West  Level FlightAware Approximate
01:48AM 42.3682 -95.3707 274° West  Level FlightAware Approximate
01:49AM 42.3747 -95.5152 274° West  Level FlightAware Approximate
01:50AM 42.3810 -95.6604 273° West  Level FlightAware Approximate
01:51AM 42.3861 -95.8057 272° West  Level FlightAware Approximate
01:52AM 42.3906 -95.9511 272° West  Level FlightAware Approximate
01:53AM 42.3948 -96.0964 272° West  Level FlightAware Approximate
01:54AM 42.3989 -96.2418 272° West  Level FlightAware Approximate
01:55AM 42.4039 -96.3872 273° West  Level FlightAware Approximate
01:56AM 42.4092 -96.5325 273° West  Level FlightAware Approximate
01:57AM 42.4144 -96.6778 273° West  Level FlightAware Approximate
01:58AM 42.4194 -96.8232 273° West  Level FlightAware Approximate
01:59AM 42.4241 -96.9686 273° West  Level FlightAware Approximate
02:00AM 42.4287 -97.1141 273° West  Level FlightAware Approximate
02:01AM 42.4332 -97.2595 272° West  Level FlightAware Approximate
02:02AM 42.4374 -97.4050 272° West  Level FlightAware Approximate
02:03AM 42.4414 -97.5505 272° West  Level FlightAware Approximate
02:04AM 42.4453 -97.6960 272° West  Level FlightAware Approximate
02:05AM 42.4490 -97.8415 272° West  Level FlightAware Approximate
02:06AM 42.4525 -97.9871 272° West  Level FlightAware Approximate
02:07AM 42.4558 -98.1326 272° West  Level FlightAware Approximate
02:08AM 42.4589 -98.2782 272° West  Level FlightAware Approximate
02:09AM 42.4619 -98.4238 272° West  Level FlightAware Approximate
02:10AM 42.4646 -98.5694 272° West  Level FlightAware Approximate
02:11AM 42.4675 -98.7150 272° West  Level FlightAware Approximate
02:12AM 42.4711 -98.8605 272° West  Level FlightAware Approximate
02:13AM 42.4746 -99.0061 272° West  Level FlightAware Approximate
02:14AM 42.4779 -99.1517 272° West  Level FlightAware Approximate
02:15AM 42.4809 -99.2974 272° West  Level FlightAware Approximate
02:16AM 42.4838 -99.4430 271° West  Level FlightAware Approximate
02:17AM 42.4863 -99.5887 271° West  Level FlightAware Approximate
02:18AM 42.4885 -99.7343 271° West  Level FlightAware Approximate
02:19AM 42.4906 -99.8800 271° West  Level FlightAware Approximate
02:20AM 42.4925 -100.0257 271° West  Level FlightAware Approximate
02:21AM 42.4942 -100.1714 271° West  Level FlightAware Approximate
02:22AM 42.4957 -100.3171 271° West  Level FlightAware Approximate
02:23AM 42.4971 -100.4628 271° West  Level FlightAware Approximate
02:24AM 42.4982 -100.6086 271° West  Level FlightAware Approximate
02:25AM 42.4992 -100.7543 271° West  Level FlightAware Approximate
02:26AM 42.5000 -100.9000 270° West  Level FlightAware Approximate
02:27AM 42.5006 -101.0457 270° West  Level FlightAware Approximate
02:28AM 42.5010 -101.1915 270° West  Level FlightAware Approximate
02:29AM 42.5013 -101.3372 270° West  Level FlightAware Approximate
02:30AM 42.5013 -101.4829 270° West  Level FlightAware Approximate
02:31AM 42.5012 -101.6287 270° West  Level FlightAware Approximate
02:32AM 42.5009 -101.7744 270° West  Level FlightAware Approximate
02:33AM 42.5004 -101.9201 270° West  Level FlightAware Approximate
02:34AM 42.5001 -102.0659 270° West  Level FlightAware Approximate
02:35AM 42.5001 -102.2116 270° West  Level FlightAware Approximate
02:36AM 42.5006 -102.3573 271° West  Level FlightAware Approximate
02:37AM 42.5019 -102.5057 271° West  Level FlightAware Approximate
02:38AM 42.5031 -102.6540 271° West  Level FlightAware Approximate
02:39AM 42.5040 -102.8024 271° West  Level FlightAware Approximate
02:40AM 42.5048 -102.9507 270° West  Level FlightAware Approximate
02:41AM 42.5054 -103.0991 270° West  Level FlightAware Approximate
02:42AM 42.5058 -103.2474 270° West  Level FlightAware Approximate
02:43AM 42.5060 -103.3958 270° West  Level FlightAware Approximate
02:44AM 42.5060 -103.5442 270° West  Level FlightAware Approximate
02:45AM 42.5058 -103.6925 270° West  Level FlightAware Approximate
02:46AM 42.5054 -103.8409 270° West  Level FlightAware Approximate
02:47AM 42.5048 -103.9892 270° West  Level FlightAware Approximate
02:48AM 42.5041 -104.1376 270° West  Level FlightAware Approximate
02:49AM 42.5031 -104.2859 270° West  Level FlightAware Approximate
02:50AM 42.5020 -104.4343 269° West  Level FlightAware Approximate
02:51AM 42.5007 -104.5826 269° West  Level FlightAware Approximate
02:52AM 42.5005 -104.7309 270° West  Level FlightAware Approximate
02:53AM 42.5011 -104.8793 270° West  Level FlightAware Approximate
02:54AM 42.5016 -105.0276 270° West  Level FlightAware Approximate
02:55AM 42.5019 -105.1760 270° West  Level FlightAware Approximate
02:56AM 42.5020 -105.3243 270° West  Level FlightAware Approximate
02:57AM 42.5019 -105.4727 270° West  Level FlightAware Approximate
02:58AM 42.5016 -105.6210 270° West  Level FlightAware Approximate
02:59AM 42.5011 -105.7694 270° West  Level FlightAware Approximate
03:00AM 42.5005 -105.9177 270° West  Level FlightAware Approximate
03:01AM 42.4961 -106.0659 265° West  Level FlightAware Approximate
03:02AM 42.4872 -106.2137 265° West  Level FlightAware Approximate
03:03AM 42.4781 -106.3615 265° West  Level FlightAware Approximate
03:04AM 42.4689 -106.5092 265° West  Level FlightAware Approximate
03:05AM 42.4594 -106.6570 265° West  Level FlightAware Approximate
03:06AM 42.4498 -106.8046 265° West  Level FlightAware Approximate
03:07AM 42.4399 -106.9522 265° West  Level FlightAware Approximate
03:08AM 42.4299 -107.0998 265° West  Level FlightAware Approximate
03:09AM 42.4197 -107.2473 265° West  Level FlightAware Approximate
03:10AM 42.4093 -107.3948 265° West  Level FlightAware Approximate
03:11AM 42.3987 -107.5422 264° West  Level FlightAware Approximate
03:12AM 42.3879 -107.6896 264° West  Level FlightAware Approximate
03:13AM 42.3769 -107.8369 264° West  Level FlightAware Approximate
03:14AM 42.3657 -107.9842 264° West  Level FlightAware Approximate
03:15AM 42.3544 -108.1314 264° West  Level FlightAware Approximate
03:16AM 42.3428 -108.2786 264° West  Level FlightAware Approximate
03:17AM 42.3311 -108.4257 264° West  Level FlightAware Approximate
03:18AM 42.3192 -108.5727 264° West  Level FlightAware Approximate
03:19AM 42.3071 -108.7197 264° West  Level FlightAware Approximate
03:20AM 42.2948 -108.8667 264° West  Level FlightAware Approximate
03:21AM 42.2823 -109.0135 263° West  Level FlightAware Approximate
03:22AM 42.2696 -109.1604 263° West  Level FlightAware Approximate
03:23AM 42.2568 -109.3071 263° West  Level FlightAware Approximate
03:24AM 42.2442 -109.4532 264° West  Level FlightAware Approximate
03:25AM 42.2318 -109.5993 264° West  Level FlightAware Approximate
03:26AM 42.2193 -109.7454 263° West  Level FlightAware Approximate
03:27AM 42.2066 -109.8914 263° West  Level FlightAware Approximate
03:28AM 42.1935 -110.0373 263° West  Level FlightAware Approximate
03:29AM 42.1798 -110.1831 263° West  Level FlightAware Approximate
03:30AM 42.1660 -110.3288 263° West  Level FlightAware Approximate
03:31AM 42.1520 -110.4745 263° West  Level FlightAware Approximate
03:32AM 42.1378 -110.6201 263° West  Level FlightAware Approximate
03:33AM 42.1234 -110.7656 262° West  Level FlightAware Approximate
03:34AM 42.1070 -110.9108 260° West  Level FlightAware Approximate
03:35AM 42.0917 -111.0560 263° West  Level FlightAware Approximate
03:36AM 42.0781 -111.2016 263° West  Level FlightAware Approximate
03:37AM 42.0643 -111.3471 263° West  Level FlightAware Approximate
03:38AM 42.0503 -111.4925 263° West  Level FlightAware Approximate
03:39AM 42.0361 -111.6379 263° West  Level FlightAware Approximate
03:40AM 42.0218 -111.7832 262° West  Level FlightAware Approximate
03:41AM 42.0072 -111.9284 262° West  Level FlightAware Approximate
03:42AM 41.9835 -112.0709 253° West  Level FlightAware Approximate
03:43AM 41.9508 -112.2105 253° West  Level FlightAware Approximate
03:44AM 41.9179 -112.3501 252° West  Level FlightAware Approximate
03:45AM 41.8849 -112.4895 252° West  Level FlightAware Approximate
03:46AM 41.8517 -112.6287 252° West  Level FlightAware Approximate
03:47AM 41.8183 -112.7679 252° West  Level FlightAware Approximate
03:48AM 41.7848 -112.9068 252° West  Level FlightAware Approximate
03:49AM 41.7511 -113.0456 252° West  Level FlightAware Approximate
03:50AM 41.7177 -113.1845 252° West  Level FlightAware Approximate
03:51AM 41.6841 -113.3232 252° West  Level FlightAware Approximate
03:52AM 41.6504 -113.4619 252° West  Level FlightAware Approximate
03:53AM 41.6166 -113.6003 252° West  Level FlightAware Approximate
03:54AM 41.5825 -113.7386 252° West  Level FlightAware Approximate
03:55AM 41.5483 -113.8768 252° West  Level FlightAware Approximate
03:56AM 41.5140 -114.0148 252° West  Level FlightAware Approximate
03:57AM 41.4794 -114.1526 252° West  Level FlightAware Approximate
03:58AM 41.4447 -114.2904 251° West  Level FlightAware Approximate
03:59AM 41.4099 -114.4279 251° West  Level FlightAware Approximate
04:00AM 41.3750 -114.5655 251° West  Level FlightAware Approximate
04:01AM 41.3400 -114.7028 251° West  Level FlightAware Approximate
04:02AM 41.3049 -114.8401 251° West  Level FlightAware Approximate
04:03AM 41.2696 -114.9772 251° West  Level FlightAware Approximate
04:04AM 41.2342 -115.1141 251° West  Level FlightAware Approximate
04:05AM 41.1986 -115.2509 251° West  Level FlightAware Approximate
04:06AM 41.1628 -115.3875 251° West  Level FlightAware Approximate
04:07AM 41.1269 -115.5240 251° West  Level FlightAware Approximate
04:08AM 41.0908 -115.6604 251° West  Level FlightAware Approximate
04:09AM 41.0545 -115.7966 251° West  Level FlightAware Approximate
04:10AM 41.0181 -115.9326 251° West  Level FlightAware Approximate
04:11AM 40.9778 -116.0665 246° West  Level FlightAware Approximate
04:12AM 40.9337 -116.1983 246° West  Level FlightAware Approximate
04:13AM 40.8895 -116.3300 246° West  Level FlightAware Approximate
04:14AM 40.8450 -116.4614 246° West  Level FlightAware Approximate
04:15AM 40.8005 -116.5927 246° West  Level FlightAware Approximate
04:16AM 40.7558 -116.7238 246° West  Level FlightAware Approximate
04:17AM 40.7109 -116.8548 246° West  Level FlightAware Approximate
04:18AM 40.6659 -116.9855 245° Southwest  Level FlightAware Approximate
04:19AM 40.6204 -117.1159 245° Southwest  Level FlightAware Approximate
04:20AM 40.5748 -117.2461 245° Southwest  Level FlightAware Approximate
04:21AM 40.5299 -117.3767 246° West  Level FlightAware Approximate
04:22AM 40.4852 -117.5072 246° West  Level FlightAware Approximate
04:23AM 40.4403 -117.6376 246° West  Level FlightAware Approximate
04:24AM 40.3952 -117.7678 246° West  Level FlightAware Approximate
04:25AM 40.3506 -117.8982 246° West  Level FlightAware Approximate
04:26AM 40.3034 -118.0265 237° Southwest  Level FlightAware Approximate
04:27AM 40.2687 -118.1571 245° Southwest  Level FlightAware Approximate
04:28AM 40.2218 -118.2858 245° Southwest  Level FlightAware Approximate
04:29AM 40.1690 -118.4099 247° West  Level FlightAware Approximate
04:30AM 40.1254 -118.5405 246° West  Level FlightAware Approximate
04:31AM 40.0916 -118.6753 246° West  Level FlightAware Approximate
04:32AM 40.0627 -118.8122 257° West  Level FlightAware Approximate
04:33AM 40.0372 -118.9505 256° West  Level FlightAware Approximate
04:34AM 40.0115 -119.0887 256° West  Level FlightAware Approximate
04:35AM 39.9903 -119.2280 261° West  Level FlightAware Approximate
04:36AM 39.9603 -119.3639 250° West  Level FlightAware Approximate
04:37AM 39.8819 -119.4511 212° Southwest  Level FlightAware Approximate
04:38AM 39.7898 -119.5267 212° Southwest  Level FlightAware Approximate
04:39AM 39.6976 -119.6019 211° Southwest  Level FlightAware Approximate
04:40AM 39.6042 -119.6746 211° Southwest  Level FlightAware Approximate
04:41AM 39.5132 -119.7517 201° Southwest  Level FlightAware Approximate
04:42AM 39.4991 -119.7681 201° Southwest  Level Estimated
04:43AM 39.4991 -119.7681 201° Southwest  Level Estimated
04:44AM 39.4991 -119.7681 201° Southwest  Level Estimated